This is the latest recevied weather packets stored in our database for station/object EA1GHG-11. If no packets are shown the sender has not sent any weather packets the latest 10 day(s).
| Time | Temp. | Humidity | Pressure | Rain* | Wind** | Luminosity | Snow |
|---|---|---|---|---|---|---|---|
| 1778009819 | 11.67° C | 100% | 1019.3 hPa | - | - | - | - |
| 1778008319 | 12.22° C | 100% | 1019.1 hPa | - | - | - | - |
| 1778006819 | 11.67° C | 100% | 1019.2 hPa | - | - | - | - |
| 1778005319 | 12.22° C | 100% | 1018.9 hPa | - | - | - | - |
| 1778004720 | 12.78° C | 100% | 1018.9 hPa | - | - | - | - |
| 1778003220 | 13.89° C | 100% | 1018.8 hPa | - | - | - | - |
| 1778001720 | 13.33° C | 100% | 1018.8 hPa | - | - | - | - |
| 1778000220 | 14.44° C | 100% | 1018.7 hPa | - | - | - | - |
| 1777998720 | 15° C | 100% | 1018.7 hPa | - | - | - | - |
| 1777997220 | 14.44° C | 100% | 1018.6 hPa | - | - | - | - |
| 1777995719 | 16.11° C | 100% | 1018.5 hPa | - | - | - | - |
| 1777994219 | 15° C | 100% | 1018.8 hPa | - | - | - | - |
| 1777992719 | 15° C | 100% | 1018.8 hPa | - | - | - | - |
| 1777991218 | 12.78° C | 100% | 1019.2 hPa | - | - | - | - |
| 1777989718 | 13.33° C | 100% | 1019.2 hPa | - | - | - | - |
| 1777988218 | 14.44° C | 100% | 1019.2 hPa | - | - | - | - |
| 1777986853 | 13.89° C | 100% | 1019 hPa | - | - | - | - |
| 1777986718 | 13.89° C | 100% | 1019 hPa | - | - | - | - |
| 1777985218 | 17.22° C | 100% | 1018.9 hPa | - | - | - | - |
| 1777983717 | 17.22° C | 100% | 1019 hPa | - | - | - | - |
| 1777983120 | 17.78° C | 100% | 1019 hPa | - | - | - | - |
| 1777981620 | 16.11° C | 100% | 1019.2 hPa | - | - | - | - |
| 1777980120 | 15.56° C | 100% | 1019.4 hPa | - | - | - | - |
| 1777978620 | 15° C | 100% | 1019.3 hPa | - | - | - | - |
| 1777977120 | 15° C | 100% | 1019.5 hPa | - | - | - | - |
* Rain since midnight (hover to see other rain measurements)
** Current wind speed in m/s (hover to see current wind gust speed)